sensor_id;sensor_type;location;lat;lon;timestamp;temperature;humidity
1351;DHT22;669;50.206;9.998;2023-01-01T00:00:05;9.80;87.10
1351;DHT22;669;50.206;9.998;2023-01-01T00:02:35;9.90;85.80
1351;DHT22;669;50.206;9.998;2023-01-01T00:05:04;10.00;85.80
1351;DHT22;669;50.206;9.998;2023-01-01T00:07:32;10.10;85.40
1351;DHT22;669;50.206;9.998;2023-01-01T00:10:00;10.30;83.80
1351;DHT22;669;50.206;9.998;2023-01-01T00:12:45;10.40;83.50
1351;DHT22;669;50.206;9.998;2023-01-01T00:15:13;10.50;79.80
1351;DHT22;669;50.206;9.998;2023-01-01T00:17:43;10.70;81.10
1351;DHT22;669;50.206;9.998;2023-01-01T00:20:11;10.90;78.90
1351;DHT22;669;50.206;9.998;2023-01-01T00:22:39;11.10;76.90
1351;DHT22;669;50.206;9.998;2023-01-01T00:25:21;11.20;75.80
1351;DHT22;669;50.206;9.998;2023-01-01T00:27:49;11.30;76.10
1351;DHT22;669;50.206;9.998;2023-01-01T00:30:17;11.30;75.00
1351;DHT22;669;50.206;9.998;2023-01-01T00:32:46;11.40;73.60
1351;DHT22;669;50.206;9.998;2023-01-01T00:35:22;11.40;73.10
1351;DHT22;669;50.206;9.998;2023-01-01T00:37:49;11.50;73.30
1351;DHT22;669;50.206;9.998;2023-01-01T00:40:17;11.70;72.00
1351;DHT22;669;50.206;9.998;2023-01-01T00:42:45;11.80;70.90
1351;DHT22;669;50.206;9.998;2023-01-01T00:45:13;11.80;70.90
1351;DHT22;669;50.206;9.998;2023-01-01T00:47:50;11.70;70.80
1351;DHT22;669;50.206;9.998;2023-01-01T00:50:18;11.70;70.60
1351;DHT22;669;50.206;9.998;2023-01-01T00:52:46;11.70;70.00
1351;DHT22;669;50.206;9.998;2023-01-01T00:55:15;11.70;70.30
1351;DHT22;669;50.206;9.998;2023-01-01T00:57:42;11.60;70.20
1351;DHT22;669;50.206;9.998;2023-01-01T01:00:12;11.60;70.60
1351;DHT22;669;50.206;9.998;2023-01-01T01:02:40;11.60;69.50
1351;DHT22;669;50.206;9.998;2023-01-01T01:05:10;11.60;70.70
1351;DHT22;669;50.206;9.998;2023-01-01T01:07:38;11.50;69.70
1351;DHT22;669;50.206;9.998;2023-01-01T01:10:07;11.40;70.20
1351;DHT22;669;50.206;9.998;2023-01-01T01:12:35;11.30;70.00
1351;DHT22;669;50.206;9.998;2023-01-01T01:15:04;11.10;70.20
1351;DHT22;669;50.206;9.998;2023-01-01T01:17:33;10.90;71.80
1351;DHT22;669;50.206;9.998;2023-01-01T01:20:01;11.00;72.50
1351;DHT22;669;50.206;9.998;2023-01-01T01:22:31;10.90;72.90
1351;DHT22;669;50.206;9.998;2023-01-01T01:25:00;10.90;72.40
1351;DHT22;669;50.206;9.998;2023-01-01T01:27:28;10.90;73.30
1351;DHT22;669;50.206;9.998;2023-01-01T01:29:56;10.90;74.00
1351;DHT22;669;50.206;9.998;2023-01-01T01:32:24;10.90;73.80
1351;DHT22;669;50.206;9.998;2023-01-01T01:34:52;11.00;73.70
1351;DHT22;669;50.206;9.998;2023-01-01T01:37:20;11.10;73.80
1351;DHT22;669;50.206;9.998;2023-01-01T01:39:49;11.20;73.10
1351;DHT22;669;50.206;9.998;2023-01-01T01:42:19;11.30;72.60
1351;DHT22;669;50.206;9.998;2023-01-01T01:44:54;11.30;72.10
1351;DHT22;669;50.206;9.998;2023-01-01T01:47:26;11.20;72.90
1351;DHT22;669;50.206;9.998;2023-01-01T01:49:58;11.10;71.40
1351;DHT22;669;50.206;9.998;2023-01-01T01:52:28;11.10;72.10
1351;DHT22;669;50.206;9.998;2023-01-01T01:54:59;11.00;72.00
1351;DHT22;669;50.206;9.998;2023-01-01T01:57:28;10.90;72.70
1351;DHT22;669;50.206;9.998;2023-01-01T01:59:57;10.80;74.10
1351;DHT22;669;50.206;9.998;2023-01-01T02:02:35;10.70;74.70
1351;DHT22;669;50.206;9.998;2023-01-01T02:05:06;10.70;73.30
1351;DHT22;669;50.206;9.998;2023-01-01T02:07:35;10.60;74.60
1351;DHT22;669;50.206;9.998;2023-01-01T02:10:05;10.40;73.80
1351;DHT22;669;50.206;9.998;2023-01-01T02:12:33;10.20;72.80
1351;DHT22;669;50.206;9.998;2023-01-01T02:15:01;10.00;74.40
1351;DHT22;669;50.206;9.998;2023-01-01T02:17:34;9.80;76.20
1351;DHT22;669;50.206;9.998;2023-01-01T02:20:27;9.60;76.10
1351;DHT22;669;50.206;9.998;2023-01-01T02:23:22;9.50;77.80
1351;DHT22;669;50.206;9.998;2023-01-01T02:26:04;9.30;79.60
1351;DHT22;669;50.206;9.998;2023-01-01T02:28:47;9.30;82.60
1351;DHT22;669;50.206;9.998;2023-01-01T02:31:21;9.20;79.60
1351;DHT22;669;50.206;9.998;2023-01-01T02:33:53;8.90;77.50
1351;DHT22;669;50.206;9.998;2023-01-01T02:36:22;8.70;77.50
1351;DHT22;669;50.206;9.998;2023-01-01T02:38:53;8.50;79.90
1351;DHT22;669;50.206;9.998;2023-01-01T02:41:25;8.40;81.50
1351;DHT22;669;50.206;9.998;2023-01-01T02:43:55;8.20;81.90
1351;DHT22;669;50.206;9.998;2023-01-01T02:46:22;8.10;81.60
1351;DHT22;669;50.206;9.998;2023-01-01T02:48:50;8.00;82.70
1351;DHT22;669;50.206;9.998;2023-01-01T02:51:25;7.90;84.10
1351;DHT22;669;50.206;9.998;2023-01-01T02:54:00;7.80;86.10
1351;DHT22;669;50.206;9.998;2023-01-01T02:56:37;7.80;86.20
1351;DHT22;669;50.206;9.998;2023-01-01T02:59:21;7.70;86.60
1351;DHT22;669;50.206;9.998;2023-01-01T03:02:15;7.60;88.10
1351;DHT22;669;50.206;9.998;2023-01-01T03:04:54;7.70;90.20
1351;DHT22;669;50.206;9.998;2023-01-01T03:07:28;7.60;89.50
1351;DHT22;669;50.206;9.998;2023-01-01T03:10:06;7.40;85.00
1351;DHT22;669;50.206;9.998;2023-01-01T03:12:41;7.20;82.00
1351;DHT22;669;50.206;9.998;2023-01-01T03:15:20;7.00;87.20
1351;DHT22;669;50.206;9.998;2023-01-01T03:17:56;7.00;87.80
1351;DHT22;669;50.206;9.998;2023-01-01T03:20:27;6.90;88.60
1351;DHT22;669;50.206;9.998;2023-01-01T03:23:01;6.80;85.90
1351;DHT22;669;50.206;9.998;2023-01-01T03:25:32;6.70;87.50
1351;DHT22;669;50.206;9.998;2023-01-01T03:28:03;6.60;88.80
1351;DHT22;669;50.206;9.998;2023-01-01T03:30:36;6.60;89.60
1351;DHT22;669;50.206;9.998;2023-01-01T03:33:10;6.60;90.20
1351;DHT22;669;50.206;9.998;2023-01-01T03:35:44;6.60;90.90
1351;DHT22;669;50.206;9.998;2023-01-01T03:38:15;6.60;91.20
1351;DHT22;669;50.206;9.998;2023-01-01T03:40:46;6.70;91.40
1351;DHT22;669;50.206;9.998;2023-01-01T03:43:19;6.70;92.10
1351;DHT22;669;50.206;9.998;2023-01-01T03:45:51;6.80;92.40
1351;DHT22;669;50.206;9.998;2023-01-01T03:48:20;6.80;91.40
1351;DHT22;669;50.206;9.998;2023-01-01T03:50:57;6.80;92.40
1351;DHT22;669;50.206;9.998;2023-01-01T03:53:35;6.70;92.20
1351;DHT22;669;50.206;9.998;2023-01-01T03:56:11;6.80;92.20
1351;DHT22;669;50.206;9.998;2023-01-01T03:58:45;6.60;90.60
1351;DHT22;669;50.206;9.998;2023-01-01T04:01:21;6.50;90.50
1351;DHT22;669;50.206;9.998;2023-01-01T04:03:49;6.50;90.30
1351;DHT22;669;50.206;9.998;2023-01-01T04:06:18;6.40;90.30
1351;DHT22;669;50.206;9.998;2023-01-01T04:08:46;6.30;90.70
1351;DHT22;669;50.206;9.998;2023-01-01T04:11:18;6.20;90.80
1351;DHT22;669;50.206;9.998;2023-01-01T04:14:05;6.20;90.90
1351;DHT22;669;50.206;9.998;2023-01-01T04:16:34;6.10;91.60
1351;DHT22;669;50.206;9.998;2023-01-01T04:19:02;6.20;92.50
1351;DHT22;669;50.206;9.998;2023-01-01T04:21:32;6.30;93.20
1351;DHT22;669;50.206;9.998;2023-01-01T04:24:00;6.50;93.70
1351;DHT22;669;50.206;9.998;2023-01-01T04:26:28;6.50;93.30
1351;DHT22;669;50.206;9.998;2023-01-01T04:28:56;6.60;93.30
1351;DHT22;669;50.206;9.998;2023-01-01T04:31:24;6.50;91.70
1351;DHT22;669;50.206;9.998;2023-01-01T04:33:54;6.40;91.80
1351;DHT22;669;50.206;9.998;2023-01-01T04:36:21;6.30;91.30
1351;DHT22;669;50.206;9.998;2023-01-01T04:38:49;6.20;91.70
1351;DHT22;669;50.206;9.998;2023-01-01T04:41:17;6.20;92.80
1351;DHT22;669;50.206;9.998;2023-01-01T04:43:46;6.30;93.40
1351;DHT22;669;50.206;9.998;2023-01-01T04:46:16;6.40;93.90
1351;DHT22;669;50.206;9.998;2023-01-01T04:48:44;6.40;92.90
1351;DHT22;669;50.206;9.998;2023-01-01T04:51:15;6.40;93.50
1351;DHT22;669;50.206;9.998;2023-01-01T04:53:43;6.50;94.30
1351;DHT22;669;50.206;9.998;2023-01-01T04:56:13;6.50;93.10
1351;DHT22;669;50.206;9.998;2023-01-01T04:58:42;6.50;92.70
1351;DHT22;669;50.206;9.998;2023-01-01T05:01:14;6.30;92.30
1351;DHT22;669;50.206;9.998;2023-01-01T05:03:43;6.30;92.80
1351;DHT22;669;50.206;9.998;2023-01-01T05:06:11;6.30;93.80
1351;DHT22;669;50.206;9.998;2023-01-01T05:08:43;6.40;94.20
1351;DHT22;669;50.206;9.998;2023-01-01T05:11:13;6.40;93.80
1351;DHT22;669;50.206;9.998;2023-01-01T05:13:43;6.40;93.40
1351;DHT22;669;50.206;9.998;2023-01-01T05:16:12;6.40;93.20
1351;DHT22;669;50.206;9.998;2023-01-01T05:18:41;6.30;93.40
1351;DHT22;669;50.206;9.998;2023-01-01T05:21:11;6.30;93.30
1351;DHT22;669;50.206;9.998;2023-01-01T05:23:41;6.30;94.00
1351;DHT22;669;50.206;9.998;2023-01-01T05:26:10;6.30;94.20
1351;DHT22;669;50.206;9.998;2023-01-01T05:28:39;6.30;93.80
1351;DHT22;669;50.206;9.998;2023-01-01T05:31:09;6.20;93.00
1351;DHT22;669;50.206;9.998;2023-01-01T05:33:37;6.00;92.30
1351;DHT22;669;50.206;9.998;2023-01-01T05:36:08;5.90;92.50
1351;DHT22;669;50.206;9.998;2023-01-01T05:38:36;5.90;93.40
1351;DHT22;669;50.206;9.998;2023-01-01T05:41:07;6.00;94.10
1351;DHT22;669;50.206;9.998;2023-01-01T05:43:35;6.10;94.10
1351;DHT22;669;50.206;9.998;2023-01-01T05:46:05;6.10;94.60
1351;DHT22;669;50.206;9.998;2023-01-01T05:48:34;6.20;94.70
1351;DHT22;669;50.206;9.998;2023-01-01T05:51:03;6.30;94.40
1351;DHT22;669;50.206;9.998;2023-01-01T05:53:32;6.20;93.70
1351;DHT22;669;50.206;9.998;2023-01-01T05:56:01;6.20;94.20
1351;DHT22;669;50.206;9.998;2023-01-01T05:58:31;6.20;93.50
1351;DHT22;669;50.206;9.998;2023-01-01T06:01:05;6.00;92.10
1351;DHT22;669;50.206;9.998;2023-01-01T06:03:33;5.90;92.00
1351;DHT22;669;50.206;9.998;2023-01-01T06:06:05;5.80;93.00
1351;DHT22;669;50.206;9.998;2023-01-01T06:08:34;5.80;93.40
1351;DHT22;669;50.206;9.998;2023-01-01T06:11:04;5.80;93.70
1351;DHT22;669;50.206;9.998;2023-01-01T06:13:33;5.80;94.00
1351;DHT22;669;50.206;9.998;2023-01-01T06:16:02;5.90;94.40
1351;DHT22;669;50.206;9.998;2023-01-01T06:18:32;5.90;94.50
1351;DHT22;669;50.206;9.998;2023-01-01T06:21:03;5.90;94.60
1351;DHT22;669;50.206;9.998;2023-01-01T06:23:32;6.00;94.80
1351;DHT22;669;50.206;9.998;2023-01-01T06:26:08;6.00;94.70
1351;DHT22;669;50.206;9.998;2023-01-01T06:28:37;6.10;94.80
1351;DHT22;669;50.206;9.998;2023-01-01T06:31:08;6.10;95.00
1351;DHT22;669;50.206;9.998;2023-01-01T06:33:37;6.10;94.80
1351;DHT22;669;50.206;9.998;2023-01-01T06:36:07;6.00;94.10
1351;DHT22;669;50.206;9.998;2023-01-01T06:38:38;5.90;93.60
1351;DHT22;669;50.206;9.998;2023-01-01T06:41:10;5.80;93.30
1351;DHT22;669;50.206;9.998;2023-01-01T06:43:39;5.70;93.00
1351;DHT22;669;50.206;9.998;2023-01-01T06:46:13;5.50;92.50
1351;DHT22;669;50.206;9.998;2023-01-01T06:48:43;5.40;92.30
1351;DHT22;669;50.206;9.998;2023-01-01T06:51:14;5.30;92.80
1351;DHT22;669;50.206;9.998;2023-01-01T06:53:43;5.20;93.40
1351;DHT22;669;50.206;9.998;2023-01-01T06:56:11;5.20;93.70
1351;DHT22;669;50.206;9.998;2023-01-01T06:58:41;5.30;93.70
1351;DHT22;669;50.206;9.998;2023-01-01T07:01:10;5.10;92.40
1351;DHT22;669;50.206;9.998;2023-01-01T07:03:39;5.00;92.30
1351;DHT22;669;50.206;9.998;2023-01-01T07:06:08;4.90;92.60
1351;DHT22;669;50.206;9.998;2023-01-01T07:08:36;4.80;92.50
1351;DHT22;669;50.206;9.998;2023-01-01T07:11:04;4.80;93.60
1351;DHT22;669;50.206;9.998;2023-01-01T07:13:32;4.80;93.60
1351;DHT22;669;50.206;9.998;2023-01-01T07:16:01;4.90;93.90
1351;DHT22;669;50.206;9.998;2023-01-01T07:18:38;4.90;93.60
1351;DHT22;669;50.206;9.998;2023-01-01T07:21:19;4.70;92.20
1351;DHT22;669;50.206;9.998;2023-01-01T07:23:54;4.70;93.00
1351;DHT22;669;50.206;9.998;2023-01-01T07:26:23;4.70;93.50
1351;DHT22;669;50.206;9.998;2023-01-01T07:28:51;4.70;93.50
1351;DHT22;669;50.206;9.998;2023-01-01T07:31:20;4.90;94.10
1351;DHT22;669;50.206;9.998;2023-01-01T07:33:48;4.90;93.80
1351;DHT22;669;50.206;9.998;2023-01-01T07:36:16;4.90;92.50
1351;DHT22;669;50.206;9.998;2023-01-01T07:38:44;4.80;92.40
1351;DHT22;669;50.206;9.998;2023-01-01T07:41:12;4.70;92.10
1351;DHT22;669;50.206;9.998;2023-01-01T07:43:40;4.50;91.70
1351;DHT22;669;50.206;9.998;2023-01-01T07:46:09;4.50;92.70
1351;DHT22;669;50.206;9.998;2023-01-01T07:48:40;4.50;92.70
1351;DHT22;669;50.206;9.998;2023-01-01T07:51:08;4.50;93.40
1351;DHT22;669;50.206;9.998;2023-01-01T07:53:36;4.60;93.50
1351;DHT22;669;50.206;9.998;2023-01-01T07:56:04;4.70;93.50
1351;DHT22;669;50.206;9.998;2023-01-01T07:58:32;4.80;94.40
1351;DHT22;669;50.206;9.998;2023-01-01T08:01:00;4.80;93.80
1351;DHT22;669;50.206;9.998;2023-01-01T08:03:28;4.80;94.00
1351;DHT22;669;50.206;9.998;2023-01-01T08:05:58;4.90;94.20
1351;DHT22;669;50.206;9.998;2023-01-01T08:08:26;5.00;94.10
1351;DHT22;669;50.206;9.998;2023-01-01T08:10:58;5.10;94.40
1351;DHT22;669;50.206;9.998;2023-01-01T08:13:29;5.20;94.80
1351;DHT22;669;50.206;9.998;2023-01-01T08:15:57;5.40;94.80
1351;DHT22;669;50.206;9.998;2023-01-01T08:18:25;5.40;93.80
1351;DHT22;669;50.206;9.998;2023-01-01T08:20:53;5.30;93.80
1351;DHT22;669;50.206;9.998;2023-01-01T08:23:24;5.30;93.60
1351;DHT22;669;50.206;9.998;2023-01-01T08:25:52;5.30;93.80
1351;DHT22;669;50.206;9.998;2023-01-01T08:28:20;5.40;94.00
1351;DHT22;669;50.206;9.998;2023-01-01T08:30:48;5.60;94.70
1351;DHT22;669;50.206;9.998;2023-01-01T08:33:17;5.70;94.80
1351;DHT22;669;50.206;9.998;2023-01-01T08:35:45;5.70;94.50
1351;DHT22;669;50.206;9.998;2023-01-01T08:38:19;5.80;94.50
1351;DHT22;669;50.206;9.998;2023-01-01T08:40:48;5.90;94.40
1351;DHT22;669;50.206;9.998;2023-01-01T08:43:16;5.90;94.00
1351;DHT22;669;50.206;9.998;2023-01-01T08:45:44;6.00;94.10
1351;DHT22;669;50.206;9.998;2023-01-01T08:48:12;6.00;94.10
1351;DHT22;669;50.206;9.998;2023-01-01T08:50:40;6.10;94.10
1351;DHT22;669;50.206;9.998;2023-01-01T08:53:08;6.20;94.50
1351;DHT22;669;50.206;9.998;2023-01-01T08:55:36;6.30;94.80
1351;DHT22;669;50.206;9.998;2023-01-01T08:58:06;6.50;95.10
1351;DHT22;669;50.206;9.998;2023-01-01T09:00:34;6.60;95.30
1351;DHT22;669;50.206;9.998;2023-01-01T09:03:02;6.80;95.60
1351;DHT22;669;50.206;9.998;2023-01-01T09:05:30;7.00;95.70
1351;DHT22;669;50.206;9.998;2023-01-01T09:07:58;7.20;96.00
1351;DHT22;669;50.206;9.998;2023-01-01T09:10:26;7.40;95.90
1351;DHT22;669;50.206;9.998;2023-01-01T09:12:54;7.60;96.00
1351;DHT22;669;50.206;9.998;2023-01-01T09:15:23;7.80;96.10
1351;DHT22;669;50.206;9.998;2023-01-01T09:17:51;8.00;96.20
1351;DHT22;669;50.206;9.998;2023-01-01T09:20:19;8.20;95.60
1351;DHT22;669;50.206;9.998;2023-01-01T09:22:47;8.30;94.60
1351;DHT22;669;50.206;9.998;2023-01-01T09:25:15;8.50;95.10
1351;DHT22;669;50.206;9.998;2023-01-01T09:27:43;8.60;94.50
1351;DHT22;669;50.206;9.998;2023-01-01T09:30:12;8.80;94.30
1351;DHT22;669;50.206;9.998;2023-01-01T09:32:41;8.90;93.90
1351;DHT22;669;50.206;9.998;2023-01-01T09:35:09;9.20;92.80
1351;DHT22;669;50.206;9.998;2023-01-01T09:37:37;9.70;88.10
1351;DHT22;669;50.206;9.998;2023-01-01T09:40:06;10.00;83.60
1351;DHT22;669;50.206;9.998;2023-01-01T09:42:39;10.40;78.40
1351;DHT22;669;50.206;9.998;2023-01-01T09:45:20;10.70;76.80
1351;DHT22;669;50.206;9.998;2023-01-01T09:47:53;10.80;74.80
1351;DHT22;669;50.206;9.998;2023-01-01T09:50:28;10.80;75.60
1351;DHT22;669;50.206;9.998;2023-01-01T09:52:59;10.80;75.60
1351;DHT22;669;50.206;9.998;2023-01-01T09:55:41;10.80;77.10
1351;DHT22;669;50.206;9.998;2023-01-01T09:58:11;10.70;77.40
1351;DHT22;669;50.206;9.998;2023-01-01T10:00:43;10.70;77.40
1351;DHT22;669;50.206;9.998;2023-01-01T10:03:27;10.70;78.20
1351;DHT22;669;50.206;9.998;2023-01-01T10:06:02;10.80;79.50
1351;DHT22;669;50.206;9.998;2023-01-01T10:08:46;10.90;80.60
1351;DHT22;669;50.206;9.998;2023-01-01T10:11:19;11.00;83.20
1351;DHT22;669;50.206;9.998;2023-01-01T10:13:51;11.20;81.70
1351;DHT22;669;50.206;9.998;2023-01-01T10:16:27;11.40;79.10
1351;DHT22;669;50.206;9.998;2023-01-01T10:19:17;11.60;77.30
1351;DHT22;669;50.206;9.998;2023-01-01T10:21:48;11.80;76.10
1351;DHT22;669;50.206;9.998;2023-01-01T10:24:30;11.90;72.90
1351;DHT22;669;50.206;9.998;2023-01-01T10:27:03;12.10;72.50
1351;DHT22;669;50.206;9.998;2023-01-01T10:29:37;12.20;71.30
1351;DHT22;669;50.206;9.998;2023-01-01T10:32:18;12.50;66.70
1351;DHT22;669;50.206;9.998;2023-01-01T10:34:50;12.80;63.90
1351;DHT22;669;50.206;9.998;2023-01-01T10:37:18;13.00;63.90
1351;DHT22;669;50.206;9.998;2023-01-01T10:39:46;13.20;60.40
1351;DHT22;669;50.206;9.998;2023-01-01T10:42:15;13.40;60.00
1351;DHT22;669;50.206;9.998;2023-01-01T10:44:43;13.50;58.30
1351;DHT22;669;50.206;9.998;2023-01-01T10:47:26;13.60;58.40
1351;DHT22;669;50.206;9.998;2023-01-01T10:49:57;13.70;58.00
1351;DHT22;669;50.206;9.998;2023-01-01T10:52:33;13.70;58.10
1351;DHT22;669;50.206;9.998;2023-01-01T10:55:03;13.70;57.60
1351;DHT22;669;50.206;9.998;2023-01-01T10:57:34;13.70;56.70
1351;DHT22;669;50.206;9.998;2023-01-01T11:00:19;13.70;56.80
1351;DHT22;669;50.206;9.998;2023-01-01T11:03:10;13.80;56.10
1351;DHT22;669;50.206;9.998;2023-01-01T11:05:39;13.80;56.70
1351;DHT22;669;50.206;9.998;2023-01-01T11:08:27;13.80;58.20
1351;DHT22;669;50.206;9.998;2023-01-01T11:10:56;14.00;56.20
1351;DHT22;669;50.206;9.998;2023-01-01T11:13:25;14.30;56.00
1351;DHT22;669;50.206;9.998;2023-01-01T11:15:54;14.30;56.60
1351;DHT22;669;50.206;9.998;2023-01-01T11:18:25;14.30;56.60
1351;DHT22;669;50.206;9.998;2023-01-01T11:20:57;14.50;54.30
1351;DHT22;669;50.206;9.998;2023-01-01T11:23:30;14.60;54.40
1351;DHT22;669;50.206;9.998;2023-01-01T11:26:04;14.60;54.30
1351;DHT22;669;50.206;9.998;2023-01-01T11:28:33;14.60;53.60
1351;DHT22;669;50.206;9.998;2023-01-01T11:31:04;14.50;54.30
1351;DHT22;669;50.206;9.998;2023-01-01T11:33:36;14.50;54.30
1351;DHT22;669;50.206;9.998;2023-01-01T11:36:08;14.50;55.70
1351;DHT22;669;50.206;9.998;2023-01-01T11:38:36;14.40;54.50
1351;DHT22;669;50.206;9.998;2023-01-01T11:41:05;14.40;55.40
1351;DHT22;669;50.206;9.998;2023-01-01T11:43:37;14.30;55.60
1351;DHT22;669;50.206;9.998;2023-01-01T11:46:08;14.40;54.20
1351;DHT22;669;50.206;9.998;2023-01-01T11:48:41;14.30;54.20
1351;DHT22;669;50.206;9.998;2023-01-01T11:51:28;14.20;54.70
1351;DHT22;669;50.206;9.998;2023-01-01T11:54:09;14.10;55.20
1351;DHT22;669;50.206;9.998;2023-01-01T11:56:37;14.10;56.10
1351;DHT22;669;50.206;9.998;2023-01-01T11:59:12;14.00;56.50
1351;DHT22;669;50.206;9.998;2023-01-01T12:01:44;14.10;56.10
1351;DHT22;669;50.206;9.998;2023-01-01T12:04:18;14.10;55.70
1351;DHT22;669;50.206;9.998;2023-01-01T12:06:52;14.10;56.30
1351;DHT22;669;50.206;9.998;2023-01-01T12:09:24;14.20;54.60
1351;DHT22;669;50.206;9.998;2023-01-01T12:11:58;14.50;54.40
1351;DHT22;669;50.206;9.998;2023-01-01T12:14:34;14.50;55.50
1351;DHT22;669;50.206;9.998;2023-01-01T12:17:09;14.70;54.50
1351;DHT22;669;50.206;9.998;2023-01-01T12:19:45;14.90;54.60
1351;DHT22;669;50.206;9.998;2023-01-01T12:22:18;14.90;54.00
1351;DHT22;669;50.206;9.998;2023-01-01T12:24:47;15.10;53.60
1351;DHT22;669;50.206;9.998;2023-01-01T12:27:18;15.10;53.20
1351;DHT22;669;50.206;9.998;2023-01-01T12:30:00;15.30;52.10
1351;DHT22;669;50.206;9.998;2023-01-01T12:32:41;15.30;53.80
1351;DHT22;669;50.206;9.998;2023-01-01T12:35:18;15.30;53.00
1351;DHT22;669;50.206;9.998;2023-01-01T12:37:59;15.50;51.70
1351;DHT22;669;50.206;9.998;2023-01-01T12:40:38;15.30;51.50
1351;DHT22;669;50.206;9.998;2023-01-01T12:43:10;15.20;51.80
1351;DHT22;669;50.206;9.998;2023-01-01T12:46:06;15.00;52.30
1351;DHT22;669;50.206;9.998;2023-01-01T12:48:46;14.90;53.00
1351;DHT22;669;50.206;9.998;2023-01-01T12:51:28;14.70;53.30
1351;DHT22;669;50.206;9.998;2023-01-01T12:54:10;14.60;54.10
1351;DHT22;669;50.206;9.998;2023-01-01T12:56:45;14.60;53.20
1351;DHT22;669;50.206;9.998;2023-01-01T12:59:19;14.60;53.30
1351;DHT22;669;50.206;9.998;2023-01-01T13:01:50;14.50;54.30
1351;DHT22;669;50.206;9.998;2023-01-01T13:04:22;14.50;54.30
1351;DHT22;669;50.206;9.998;2023-01-01T13:06:52;14.40;54.20
1351;DHT22;669;50.206;9.998;2023-01-01T13:09:25;14.50;54.30
1351;DHT22;669;50.206;9.998;2023-01-01T13:11:56;14.40;55.20
1351;DHT22;669;50.206;9.998;2023-01-01T13:14:25;14.40;53.50
1351;DHT22;669;50.206;9.998;2023-01-01T13:16:55;14.40;53.80
1351;DHT22;669;50.206;9.998;2023-01-01T13:19:26;14.40;53.20
1351;DHT22;669;50.206;9.998;2023-01-01T13:21:57;14.40;53.70
1351;DHT22;669;50.206;9.998;2023-01-01T13:24:27;14.30;54.00
1351;DHT22;669;50.206;9.998;2023-01-01T13:26:55;14.30;53.30
1351;DHT22;669;50.206;9.998;2023-01-01T13:29:42;14.30;54.50
1351;DHT22;669;50.206;9.998;2023-01-01T13:32:12;14.40;53.20
1351;DHT22;669;50.206;9.998;2023-01-01T13:35:14;14.30;53.70
1351;DHT22;669;50.206;9.998;2023-01-01T13:37:46;14.20;53.70
1351;DHT22;669;50.206;9.998;2023-01-01T13:40:48;14.20;53.80
1351;DHT22;669;50.206;9.998;2023-01-01T13:43:27;14.20;54.30
1351;DHT22;669;50.206;9.998;2023-01-01T13:45:57;14.10;54.50
1351;DHT22;669;50.206;9.998;2023-01-01T13:49:12;14.00;54.10
1351;DHT22;669;50.206;9.998;2023-01-01T13:55:07;14.00;53.80
1351;DHT22;669;50.206;9.998;2023-01-01T13:58:02;14.10;53.50
1351;DHT22;669;50.206;9.998;2023-01-01T14:00:39;14.00;53.80
1351;DHT22;669;50.206;9.998;2023-01-01T14:03:16;14.10;54.00
1351;DHT22;669;50.206;9.998;2023-01-01T14:05:47;14.10;53.30
1351;DHT22;669;50.206;9.998;2023-01-01T14:08:29;14.10;54.00
1351;DHT22;669;50.206;9.998;2023-01-01T14:10:58;13.90;54.20
1351;DHT22;669;50.206;9.998;2023-01-01T14:13:37;13.90;53.90
1351;DHT22;669;50.206;9.998;2023-01-01T14:16:09;13.90;54.40
1351;DHT22;669;50.206;9.998;2023-01-01T14:18:41;13.80;54.30
1351;DHT22;669;50.206;9.998;2023-01-01T14:21:11;13.70;54.10
1351;DHT22;669;50.206;9.998;2023-01-01T14:23:42;13.70;54.50
1351;DHT22;669;50.206;9.998;2023-01-01T14:26:12;13.70;54.60
1351;DHT22;669;50.206;9.998;2023-01-01T14:28:42;13.70;54.50
1351;DHT22;669;50.206;9.998;2023-01-01T14:31:13;13.70;54.60
1351;DHT22;669;50.206;9.998;2023-01-01T14:33:43;13.70;54.40
1351;DHT22;669;50.206;9.998;2023-01-01T14:36:17;13.70;54.30
1351;DHT22;669;50.206;9.998;2023-01-01T14:38:48;13.60;54.90
1351;DHT22;669;50.206;9.998;2023-01-01T14:41:19;13.60;54.50
1351;DHT22;669;50.206;9.998;2023-01-01T14:43:52;13.60;54.50
1351;DHT22;669;50.206;9.998;2023-01-01T14:46:23;13.50;55.00
1351;DHT22;669;50.206;9.998;2023-01-01T14:48:54;13.60;54.30
1351;DHT22;669;50.206;9.998;2023-01-01T14:51:24;13.50;55.10
1351;DHT22;669;50.206;9.998;2023-01-01T14:53:56;13.50;55.00
1351;DHT22;669;50.206;9.998;2023-01-01T14:56:26;13.50;55.00
1351;DHT22;669;50.206;9.998;2023-01-01T14:59:03;13.60;54.10
1351;DHT22;669;50.206;9.998;2023-01-01T15:01:31;13.50;54.90
1351;DHT22;669;50.206;9.998;2023-01-01T15:04:02;13.50;54.40
1351;DHT22;669;50.206;9.998;2023-01-01T15:06:30;13.60;54.50
1351;DHT22;669;50.206;9.998;2023-01-01T15:08:59;13.60;54.20
1351;DHT22;669;50.206;9.998;2023-01-01T15:11:27;13.60;54.30
1351;DHT22;669;50.206;9.998;2023-01-01T15:13:59;13.50;55.10
1351;DHT22;669;50.206;9.998;2023-01-01T15:16:28;13.40;55.20
1351;DHT22;669;50.206;9.998;2023-01-01T15:19:16;13.40;54.50
1351;DHT22;669;50.206;9.998;2023-01-01T15:21:45;13.40;54.60
1351;DHT22;669;50.206;9.998;2023-01-01T15:24:14;13.30;55.30
1351;DHT22;669;50.206;9.998;2023-01-01T15:26:49;13.20;56.10
1351;DHT22;669;50.206;9.998;2023-01-01T15:29:26;13.10;56.00
1351;DHT22;669;50.206;9.998;2023-01-01T15:31:56;13.00;56.70
1351;DHT22;669;50.206;9.998;2023-01-01T15:34:28;13.00;56.60
1351;DHT22;669;50.206;9.998;2023-01-01T15:37:06;13.00;56.90
1351;DHT22;669;50.206;9.998;2023-01-01T15:39:44;13.00;56.90
1351;DHT22;669;50.206;9.998;2023-01-01T15:42:32;13.00;57.50
1351;DHT22;669;50.206;9.998;2023-01-01T15:45:18;12.90;57.50
1351;DHT22;669;50.206;9.998;2023-01-01T15:47:47;12.90;58.10
1351;DHT22;669;50.206;9.998;2023-01-01T15:50:22;12.80;58.30
1351;DHT22;669;50.206;9.998;2023-01-01T15:52:52;12.90;58.90
1351;DHT22;669;50.206;9.998;2023-01-01T15:55:22;12.80;59.00
1351;DHT22;669;50.206;9.998;2023-01-01T15:57:52;12.70;59.60
1351;DHT22;669;50.206;9.998;2023-01-01T16:00:23;12.60;59.50
1351;DHT22;669;50.206;9.998;2023-01-01T16:02:54;12.60;59.60
1351;DHT22;669;50.206;9.998;2023-01-01T16:05:26;12.60;59.90
1351;DHT22;669;50.206;9.998;2023-01-01T16:07:58;12.60;59.90
1351;DHT22;669;50.206;9.998;2023-01-01T16:10:26;12.50;60.00
1351;DHT22;669;50.206;9.998;2023-01-01T16:12:54;12.50;60.10
1351;DHT22;669;50.206;9.998;2023-01-01T16:15:24;12.40;60.60
1351;DHT22;669;50.206;9.998;2023-01-01T16:17:52;12.40;60.70
1351;DHT22;669;50.206;9.998;2023-01-01T16:20:21;12.40;61.00
1351;DHT22;669;50.206;9.998;2023-01-01T16:22:49;12.40;60.70
1351;DHT22;669;50.206;9.998;2023-01-01T16:25:19;12.40;60.70
1351;DHT22;669;50.206;9.998;2023-01-01T16:27:47;12.40;60.60
1351;DHT22;669;50.206;9.998;2023-01-01T16:30:15;12.30;60.60
1351;DHT22;669;50.206;9.998;2023-01-01T16:32:45;12.30;60.70
1351;DHT22;669;50.206;9.998;2023-01-01T16:35:15;12.30;60.90
1351;DHT22;669;50.206;9.998;2023-01-01T16:37:43;12.30;61.10
1351;DHT22;669;50.206;9.998;2023-01-01T16:40:11;12.20;61.10
1351;DHT22;669;50.206;9.998;2023-01-01T16:42:39;12.20;61.20
1351;DHT22;669;50.206;9.998;2023-01-01T16:45:15;12.20;61.50
1351;DHT22;669;50.206;9.998;2023-01-01T16:47:45;12.10;61.40
1351;DHT22;669;50.206;9.998;2023-01-01T16:50:13;12.10;61.40
1351;DHT22;669;50.206;9.998;2023-01-01T16:52:41;12.10;61.30
1351;DHT22;669;50.206;9.998;2023-01-01T16:55:11;12.10;61.50
1351;DHT22;669;50.206;9.998;2023-01-01T16:57:39;12.00;61.50